METAR AND TAF INFORMATION
METAR FOR TRPG
ADDS - METARS form results

(2121 UTC 24 January 2021)
Data provider http://aviationweather.gov/metar/data/
 
METAR text: TRPG 242100Z 10010KT 9999 FEW023 25/20 Q1015
Conditions at: TRPG (JOHN OSBORNE APT, MS) observed 2100 UTC 24 January 2021
Temperature: 25.0°C (77°F)
Dewpoint: 20.0°C (68°F) [RH = 74%]
Pressure (altimeter): 29.97 inches Hg (1015.0 mb)
Winds: from the E (100 degrees) at 12 MPH (10 knots; 5.1 m/s)
Visibility: 6 or more miles (10+ km)
Ceiling: at least 12,000 feet AGL
Clouds: few clouds at 2300 feet AGL
Weather: no significant weather observed at this time

Forecast for: TRPG (JOHN OSBORNE APT, MS)
Text: TAF TRPG 241700Z 2418/2518 07011KT 9999 SCT020
Forecast period: 1800 UTC 24 January 2021 to 1800 UTC 25 January 2021
Forecast type: FROM: standard forecast or significant change
Winds: from the ENE (70 degrees) at 13 MPH (11 knots; 5.7 m/s)
Visibility: 6 or more miles (10+ km)
Ceiling: at least 12,000 feet AGL
Clouds: scattered clouds at 2000 feet AGL
Weather: no significant weather forecast for this period

 AIRPORT MAP

 RUNWAY INFORMATION
Runway 10 Runway length 1968 ft Runway width 0 ft
Runway elevation 0 ft Runway displaced threshold 0 ft Runway heading 0
Runway 28 Runway length 1968 ft Runway width 0 ft
Runway elevation 0 ft Runway displaced threshold 0 ft Runway heading 0

 AIRPORT FREQUENCIES

 AIRPORT NEAR NAVIGATION AIDS
Type NDB Name Geralds Frequency 215 KHZ



Powered by Virtual Airlines Manager [v2.6.2]